sensor_id;sensor_type;location;lat;lon;timestamp;P1;durP1;ratioP1;P2;durP2;ratioP2
15307;SDS011;7755;52.208;6.964;2022-11-14T00:03:50;52.67;;;33.37;;
15307;SDS011;7755;52.208;6.964;2022-11-14T00:08:13;49.47;;;33.27;;
15307;SDS011;7755;52.208;6.964;2022-11-14T00:12:34;48.37;;;32.30;;
15307;SDS011;7755;52.208;6.964;2022-11-14T00:16:56;49.50;;;31.80;;
15307;SDS011;7755;52.208;6.964;2022-11-14T00:21:18;45.10;;;30.60;;
15307;SDS011;7755;52.208;6.964;2022-11-14T00:25:38;50.90;;;32.87;;
15307;SDS011;7755;52.208;6.964;2022-11-14T00:29:58;49.83;;;31.30;;
15307;SDS011;7755;52.208;6.964;2022-11-14T00:34:18;54.40;;;34.03;;
15307;SDS011;7755;52.208;6.964;2022-11-14T00:38:40;46.57;;;31.17;;
15307;SDS011;7755;52.208;6.964;2022-11-14T00:43:00;44.80;;;30.47;;
15307;SDS011;7755;52.208;6.964;2022-11-14T00:47:20;47.47;;;31.47;;
15307;SDS011;7755;52.208;6.964;2022-11-14T00:51:40;48.30;;;32.57;;
15307;SDS011;7755;52.208;6.964;2022-11-14T00:56:02;51.30;;;33.57;;
15307;SDS011;7755;52.208;6.964;2022-11-14T01:00:23;48.77;;;30.20;;
15307;SDS011;7755;52.208;6.964;2022-11-14T01:04:43;50.53;;;33.80;;
15307;SDS011;7755;52.208;6.964;2022-11-14T01:09:03;49.27;;;29.03;;
15307;SDS011;7755;52.208;6.964;2022-11-14T01:13:25;43.40;;;29.80;;
15307;SDS011;7755;52.208;6.964;2022-11-14T01:17:49;42.53;;;30.20;;
15307;SDS011;7755;52.208;6.964;2022-11-14T01:22:10;52.73;;;32.70;;
15307;SDS011;7755;52.208;6.964;2022-11-14T01:26:30;52.80;;;32.93;;
15307;SDS011;7755;52.208;6.964;2022-11-14T01:30:52;46.90;;;29.63;;
15307;SDS011;7755;52.208;6.964;2022-11-14T01:35:12;49.23;;;31.73;;
15307;SDS011;7755;52.208;6.964;2022-11-14T01:39:32;44.43;;;31.10;;
15307;SDS011;7755;52.208;6.964;2022-11-14T01:43:52;47.10;;;30.73;;
15307;SDS011;7755;52.208;6.964;2022-11-14T01:48:16;42.43;;;29.30;;
15307;SDS011;7755;52.208;6.964;2022-11-14T01:52:40;46.17;;;29.90;;
15307;SDS011;7755;52.208;6.964;2022-11-14T01:57:01;44.60;;;28.93;;
15307;SDS011;7755;52.208;6.964;2022-11-14T02:01:23;42.23;;;28.57;;
15307;SDS011;7755;52.208;6.964;2022-11-14T02:05:45;43.80;;;29.47;;
15307;SDS011;7755;52.208;6.964;2022-11-14T02:10:08;45.13;;;29.10;;
15307;SDS011;7755;52.208;6.964;2022-11-14T02:14:34;50.00;;;32.00;;
15307;SDS011;7755;52.208;6.964;2022-11-14T02:18:55;43.20;;;29.60;;
15307;SDS011;7755;52.208;6.964;2022-11-14T02:23:24;48.97;;;31.03;;
15307;SDS011;7755;52.208;6.964;2022-11-14T02:27:45;45.67;;;30.83;;
15307;SDS011;7755;52.208;6.964;2022-11-14T02:32:06;43.90;;;29.97;;
15307;SDS011;7755;52.208;6.964;2022-11-14T02:36:26;47.13;;;29.67;;
15307;SDS011;7755;52.208;6.964;2022-11-14T02:40:47;46.13;;;31.07;;
15307;SDS011;7755;52.208;6.964;2022-11-14T02:45:08;49.93;;;32.53;;
15307;SDS011;7755;52.208;6.964;2022-11-14T02:49:30;46.30;;;29.70;;
15307;SDS011;7755;52.208;6.964;2022-11-14T02:53:50;44.20;;;30.27;;
15307;SDS011;7755;52.208;6.964;2022-11-14T02:58:12;45.73;;;30.30;;
15307;SDS011;7755;52.208;6.964;2022-11-14T03:02:32;45.40;;;31.00;;
15307;SDS011;7755;52.208;6.964;2022-11-14T03:06:53;46.37;;;29.13;;
15307;SDS011;7755;52.208;6.964;2022-11-14T03:11:13;55.77;;;33.60;;
15307;SDS011;7755;52.208;6.964;2022-11-14T03:15:36;42.70;;;27.63;;
15307;SDS011;7755;52.208;6.964;2022-11-14T03:19:56;43.30;;;27.70;;
15307;SDS011;7755;52.208;6.964;2022-11-14T03:24:17;42.67;;;27.77;;
15307;SDS011;7755;52.208;6.964;2022-11-14T03:28:37;43.27;;;28.77;;
15307;SDS011;7755;52.208;6.964;2022-11-14T03:33:00;45.00;;;28.87;;
15307;SDS011;7755;52.208;6.964;2022-11-14T03:37:20;43.17;;;28.80;;
15307;SDS011;7755;52.208;6.964;2022-11-14T03:41:40;49.33;;;30.97;;
15307;SDS011;7755;52.208;6.964;2022-11-14T03:46:01;47.00;;;30.37;;
15307;SDS011;7755;52.208;6.964;2022-11-14T03:50:23;42.33;;;28.90;;
15307;SDS011;7755;52.208;6.964;2022-11-14T03:54:43;44.37;;;30.27;;
15307;SDS011;7755;52.208;6.964;2022-11-14T03:59:04;48.97;;;29.20;;
15307;SDS011;7755;52.208;6.964;2022-11-14T04:03:24;45.37;;;29.77;;
15307;SDS011;7755;52.208;6.964;2022-11-14T04:07:46;43.43;;;27.33;;
15307;SDS011;7755;52.208;6.964;2022-11-14T04:12:06;42.23;;;27.00;;
15307;SDS011;7755;52.208;6.964;2022-11-14T04:16:26;51.33;;;31.17;;
15307;SDS011;7755;52.208;6.964;2022-11-14T04:20:47;44.07;;;28.97;;
15307;SDS011;7755;52.208;6.964;2022-11-14T04:25:09;47.20;;;30.47;;
15307;SDS011;7755;52.208;6.964;2022-11-14T04:29:29;47.57;;;30.10;;
15307;SDS011;7755;52.208;6.964;2022-11-14T04:33:49;46.03;;;30.00;;
15307;SDS011;7755;52.208;6.964;2022-11-14T04:38:09;44.17;;;28.40;;
15307;SDS011;7755;52.208;6.964;2022-11-14T04:42:31;41.50;;;27.43;;
15307;SDS011;7755;52.208;6.964;2022-11-14T04:46:51;44.40;;;28.90;;
15307;SDS011;7755;52.208;6.964;2022-11-14T04:51:12;39.63;;;26.70;;
15307;SDS011;7755;52.208;6.964;2022-11-14T04:55:33;39.87;;;27.50;;
15307;SDS011;7755;52.208;6.964;2022-11-14T04:59:54;42.50;;;28.20;;
15307;SDS011;7755;52.208;6.964;2022-11-14T05:04:14;40.10;;;28.67;;
15307;SDS011;7755;52.208;6.964;2022-11-14T05:08:34;38.90;;;27.13;;
15307;SDS011;7755;52.208;6.964;2022-11-14T05:12:55;54.13;;;31.23;;
15307;SDS011;7755;52.208;6.964;2022-11-14T05:17:16;37.90;;;26.20;;
15307;SDS011;7755;52.208;6.964;2022-11-14T05:21:37;40.10;;;26.10;;
15307;SDS011;7755;52.208;6.964;2022-11-14T05:25:58;38.07;;;26.17;;
15307;SDS011;7755;52.208;6.964;2022-11-14T05:30:19;37.00;;;26.03;;
15307;SDS011;7755;52.208;6.964;2022-11-14T05:34:41;38.07;;;26.80;;
15307;SDS011;7755;52.208;6.964;2022-11-14T05:39:01;36.80;;;25.67;;
15307;SDS011;7755;52.208;6.964;2022-11-14T05:43:21;35.00;;;24.23;;
15307;SDS011;7755;52.208;6.964;2022-11-14T05:47:41;38.93;;;26.87;;
15307;SDS011;7755;52.208;6.964;2022-11-14T05:52:03;42.40;;;27.03;;
15307;SDS011;7755;52.208;6.964;2022-11-14T05:56:24;37.10;;;24.83;;
15307;SDS011;7755;52.208;6.964;2022-11-14T06:00:44;40.33;;;27.00;;
15307;SDS011;7755;52.208;6.964;2022-11-14T06:05:05;39.87;;;27.00;;
15307;SDS011;7755;52.208;6.964;2022-11-14T06:09:27;37.70;;;26.17;;
15307;SDS011;7755;52.208;6.964;2022-11-14T06:13:47;40.13;;;27.07;;
15307;SDS011;7755;52.208;6.964;2022-11-14T06:18:07;38.37;;;27.73;;
15307;SDS011;7755;52.208;6.964;2022-11-14T06:22:27;39.90;;;25.63;;
15307;SDS011;7755;52.208;6.964;2022-11-14T06:26:49;45.53;;;28.77;;
15307;SDS011;7755;52.208;6.964;2022-11-14T06:31:10;38.70;;;25.77;;
15307;SDS011;7755;52.208;6.964;2022-11-14T06:35:30;37.87;;;26.43;;
15307;SDS011;7755;52.208;6.964;2022-11-14T06:39:51;40.93;;;26.60;;
15307;SDS011;7755;52.208;6.964;2022-11-14T06:44:12;41.20;;;28.20;;
15307;SDS011;7755;52.208;6.964;2022-11-14T06:48:34;39.33;;;27.07;;
15307;SDS011;7755;52.208;6.964;2022-11-14T06:52:55;38.03;;;24.17;;
15307;SDS011;7755;52.208;6.964;2022-11-14T06:57:16;36.63;;;26.77;;
15307;SDS011;7755;52.208;6.964;2022-11-14T07:01:37;36.67;;;25.23;;
15307;SDS011;7755;52.208;6.964;2022-11-14T07:05:57;36.67;;;27.10;;
15307;SDS011;7755;52.208;6.964;2022-11-14T07:10:18;41.07;;;27.33;;
15307;SDS011;7755;52.208;6.964;2022-11-14T07:14:38;38.43;;;25.93;;
15307;SDS011;7755;52.208;6.964;2022-11-14T07:19:00;49.17;;;31.40;;
15307;SDS011;7755;52.208;6.964;2022-11-14T07:23:21;42.97;;;28.53;;
15307;SDS011;7755;52.208;6.964;2022-11-14T07:27:41;40.33;;;27.67;;
15307;SDS011;7755;52.208;6.964;2022-11-14T07:32:02;42.10;;;30.30;;
15307;SDS011;7755;52.208;6.964;2022-11-14T07:36:23;37.30;;;26.90;;
15307;SDS011;7755;52.208;6.964;2022-11-14T07:40:51;37.53;;;25.00;;
15307;SDS011;7755;52.208;6.964;2022-11-14T07:45:12;37.50;;;26.67;;
15307;SDS011;7755;52.208;6.964;2022-11-14T07:49:32;37.93;;;28.53;;
15307;SDS011;7755;52.208;6.964;2022-11-14T07:53:54;37.80;;;27.63;;
15307;SDS011;7755;52.208;6.964;2022-11-14T07:58:14;32.77;;;25.03;;
15307;SDS011;7755;52.208;6.964;2022-11-14T08:02:34;34.17;;;25.10;;
15307;SDS011;7755;52.208;6.964;2022-11-14T08:06:55;37.73;;;25.80;;
15307;SDS011;7755;52.208;6.964;2022-11-14T08:11:16;38.63;;;26.27;;
15307;SDS011;7755;52.208;6.964;2022-11-14T08:15:57;39.97;;;27.10;;
15307;SDS011;7755;52.208;6.964;2022-11-14T08:20:18;38.73;;;27.43;;
15307;SDS011;7755;52.208;6.964;2022-11-14T08:24:38;37.87;;;27.90;;
15307;SDS011;7755;52.208;6.964;2022-11-14T08:29:00;34.23;;;26.80;;
15307;SDS011;7755;52.208;6.964;2022-11-14T08:33:20;39.40;;;28.13;;
15307;SDS011;7755;52.208;6.964;2022-11-14T08:37:41;38.10;;;27.43;;
15307;SDS011;7755;52.208;6.964;2022-11-14T08:42:01;38.23;;;26.57;;
15307;SDS011;7755;52.208;6.964;2022-11-14T08:46:23;41.30;;;30.13;;
15307;SDS011;7755;52.208;6.964;2022-11-14T08:50:44;42.77;;;28.03;;
15307;SDS011;7755;52.208;6.964;2022-11-14T08:55:04;38.07;;;26.97;;
15307;SDS011;7755;52.208;6.964;2022-11-14T08:59:25;41.50;;;28.07;;
15307;SDS011;7755;52.208;6.964;2022-11-14T09:03:47;35.80;;;25.83;;
15307;SDS011;7755;52.208;6.964;2022-11-14T09:08:08;38.33;;;26.40;;
15307;SDS011;7755;52.208;6.964;2022-11-14T09:12:28;34.50;;;25.97;;
15307;SDS011;7755;52.208;6.964;2022-11-14T09:16:48;35.53;;;26.20;;
15307;SDS011;7755;52.208;6.964;2022-11-14T09:21:10;36.50;;;25.60;;
15307;SDS011;7755;52.208;6.964;2022-11-14T09:25:31;34.47;;;25.57;;
15307;SDS011;7755;52.208;6.964;2022-11-14T09:29:51;29.53;;;23.27;;
15307;SDS011;7755;52.208;6.964;2022-11-14T09:34:12;28.20;;;21.63;;
15307;SDS011;7755;52.208;6.964;2022-11-14T09:38:34;33.60;;;23.83;;
15307;SDS011;7755;52.208;6.964;2022-11-14T09:42:58;28.43;;;23.53;;
15307;SDS011;7755;52.208;6.964;2022-11-14T09:47:30;30.50;;;23.10;;
15307;SDS011;7755;52.208;6.964;2022-11-14T09:51:57;29.33;;;22.90;;
15307;SDS011;7755;52.208;6.964;2022-11-14T09:56:24;33.57;;;23.80;;
15307;SDS011;7755;52.208;6.964;2022-11-14T10:00:46;30.43;;;23.83;;
15307;SDS011;7755;52.208;6.964;2022-11-14T10:05:15;30.03;;;23.10;;
15307;SDS011;7755;52.208;6.964;2022-11-14T10:09:49;28.50;;;23.20;;
15307;SDS011;7755;52.208;6.964;2022-11-14T10:19:11;27.40;;;21.30;;
15307;SDS011;7755;52.208;6.964;2022-11-14T10:23:38;27.87;;;21.93;;
15307;SDS011;7755;52.208;6.964;2022-11-14T10:28:14;26.93;;;21.07;;
15307;SDS011;7755;52.208;6.964;2022-11-14T10:33:15;28.03;;;21.47;;
15307;SDS011;7755;52.208;6.964;2022-11-14T10:37:45;31.53;;;22.97;;
15307;SDS011;7755;52.208;6.964;2022-11-14T10:42:18;26.23;;;21.33;;
15307;SDS011;7755;52.208;6.964;2022-11-14T10:46:46;26.30;;;21.33;;
15307;SDS011;7755;52.208;6.964;2022-11-14T10:51:13;26.83;;;20.93;;
15307;SDS011;7755;52.208;6.964;2022-11-14T10:55:40;24.33;;;19.67;;
15307;SDS011;7755;52.208;6.964;2022-11-14T11:00:04;26.50;;;20.57;;
15307;SDS011;7755;52.208;6.964;2022-11-14T11:04:30;24.17;;;20.50;;
15307;SDS011;7755;52.208;6.964;2022-11-14T11:08:53;25.23;;;21.60;;
15307;SDS011;7755;52.208;6.964;2022-11-14T11:13:32;29.90;;;23.13;;
15307;SDS011;7755;52.208;6.964;2022-11-14T11:17:54;25.93;;;20.90;;
15307;SDS011;7755;52.208;6.964;2022-11-14T11:22:23;25.47;;;20.33;;
15307;SDS011;7755;52.208;6.964;2022-11-14T11:31:50;24.73;;;20.70;;
15307;SDS011;7755;52.208;6.964;2022-11-14T11:36:12;27.30;;;20.93;;
15307;SDS011;7755;52.208;6.964;2022-11-14T11:40:36;22.83;;;20.03;;
15307;SDS011;7755;52.208;6.964;2022-11-14T11:44:59;23.87;;;19.77;;
15307;SDS011;7755;52.208;6.964;2022-11-14T11:49:25;22.90;;;18.83;;
15307;SDS011;7755;52.208;6.964;2022-11-14T11:53:57;28.77;;;20.27;;
15307;SDS011;7755;52.208;6.964;2022-11-14T11:58:22;25.00;;;19.07;;
15307;SDS011;7755;52.208;6.964;2022-11-14T12:02:50;20.17;;;17.93;;
15307;SDS011;7755;52.208;6.964;2022-11-14T12:07:13;21.17;;;18.57;;
15307;SDS011;7755;52.208;6.964;2022-11-14T12:11:36;20.80;;;18.50;;
15307;SDS011;7755;52.208;6.964;2022-11-14T12:16:04;22.87;;;18.13;;
15307;SDS011;7755;52.208;6.964;2022-11-14T12:20:39;20.27;;;18.10;;
15307;SDS011;7755;52.208;6.964;2022-11-14T12:25:30;19.20;;;17.10;;
15307;SDS011;7755;52.208;6.964;2022-11-14T12:30:08;19.57;;;17.33;;
15307;SDS011;7755;52.208;6.964;2022-11-14T12:34:33;19.60;;;15.90;;
15307;SDS011;7755;52.208;6.964;2022-11-14T12:38:58;18.83;;;16.87;;
15307;SDS011;7755;52.208;6.964;2022-11-14T12:43:26;17.73;;;15.83;;
15307;SDS011;7755;52.208;6.964;2022-11-14T12:52:46;18.23;;;15.53;;
15307;SDS011;7755;52.208;6.964;2022-11-14T12:57:10;16.97;;;14.07;;
15307;SDS011;7755;52.208;6.964;2022-11-14T13:02:08;17.70;;;14.90;;
15307;SDS011;7755;52.208;6.964;2022-11-14T13:06:43;14.37;;;12.87;;
15307;SDS011;7755;52.208;6.964;2022-11-14T13:16:22;15.13;;;13.07;;
15307;SDS011;7755;52.208;6.964;2022-11-14T13:21:01;14.47;;;12.87;;
15307;SDS011;7755;52.208;6.964;2022-11-14T13:25:41;14.03;;;12.53;;
15307;SDS011;7755;52.208;6.964;2022-11-14T13:30:01;14.20;;;12.70;;
15307;SDS011;7755;52.208;6.964;2022-11-14T13:34:34;16.37;;;14.40;;
15307;SDS011;7755;52.208;6.964;2022-11-14T13:43:55;15.40;;;13.70;;
15307;SDS011;7755;52.208;6.964;2022-11-14T13:48:35;15.80;;;14.30;;
15307;SDS011;7755;52.208;6.964;2022-11-14T13:53:16;16.47;;;14.13;;
15307;SDS011;7755;52.208;6.964;2022-11-14T13:57:43;15.87;;;14.27;;
15307;SDS011;7755;52.208;6.964;2022-11-14T14:02:30;16.53;;;14.83;;
15307;SDS011;7755;52.208;6.964;2022-11-14T14:07:05;16.80;;;13.80;;
15307;SDS011;7755;52.208;6.964;2022-11-14T14:11:34;17.50;;;15.23;;
15307;SDS011;7755;52.208;6.964;2022-11-14T14:16:06;17.90;;;15.30;;
15307;SDS011;7755;52.208;6.964;2022-11-14T14:20:39;16.47;;;14.77;;
15307;SDS011;7755;52.208;6.964;2022-11-14T14:25:07;18.17;;;16.10;;
15307;SDS011;7755;52.208;6.964;2022-11-14T14:29:40;16.17;;;14.57;;
15307;SDS011;7755;52.208;6.964;2022-11-14T14:34:19;15.30;;;13.70;;
15307;SDS011;7755;52.208;6.964;2022-11-14T14:38:40;14.90;;;13.40;;
15307;SDS011;7755;52.208;6.964;2022-11-14T14:43:02;16.63;;;14.83;;
15307;SDS011;7755;52.208;6.964;2022-11-14T14:47:29;15.57;;;14.03;;
15307;SDS011;7755;52.208;6.964;2022-11-14T14:51:56;16.13;;;14.40;;
15307;SDS011;7755;52.208;6.964;2022-11-14T14:56:18;17.40;;;15.13;;
15307;SDS011;7755;52.208;6.964;2022-11-14T15:00:49;20.90;;;15.77;;
15307;SDS011;7755;52.208;6.964;2022-11-14T15:05:19;14.87;;;13.23;;
15307;SDS011;7755;52.208;6.964;2022-11-14T15:09:49;15.87;;;14.27;;
15307;SDS011;7755;52.208;6.964;2022-11-14T15:14:11;16.30;;;14.50;;
15307;SDS011;7755;52.208;6.964;2022-11-14T15:18:34;15.77;;;14.17;;
15307;SDS011;7755;52.208;6.964;2022-11-14T15:23:05;16.63;;;15.03;;
15307;SDS011;7755;52.208;6.964;2022-11-14T15:27:43;15.97;;;14.27;;
15307;SDS011;7755;52.208;6.964;2022-11-14T15:32:15;16.93;;;15.13;;
15307;SDS011;7755;52.208;6.964;2022-11-14T15:41:18;20.00;;;17.00;;
15307;SDS011;7755;52.208;6.964;2022-11-14T15:48:19;15.60;;;13.93;;
15307;SDS011;7755;52.208;6.964;2022-11-14T15:52:45;17.17;;;15.37;;
15307;SDS011;7755;52.208;6.964;2022-11-14T15:57:10;17.75;;;15.73;;
15307;SDS011;7755;52.208;6.964;2022-11-14T16:01:33;19.13;;;16.70;;
15307;SDS011;7755;52.208;6.964;2022-11-14T16:05:56;17.17;;;15.27;;
15307;SDS011;7755;52.208;6.964;2022-11-14T16:10:18;18.70;;;16.63;;
15307;SDS011;7755;52.208;6.964;2022-11-14T16:14:41;17.37;;;15.43;;
15307;SDS011;7755;52.208;6.964;2022-11-14T16:19:04;15.77;;;14.07;;
15307;SDS011;7755;52.208;6.964;2022-11-14T16:23:27;17.33;;;15.23;;
15307;SDS011;7755;52.208;6.964;2022-11-14T16:27:49;17.63;;;15.30;;
15307;SDS011;7755;52.208;6.964;2022-11-14T16:32:10;16.03;;;14.40;;
15307;SDS011;7755;52.208;6.964;2022-11-14T16:36:32;22.23;;;19.90;;
15307;SDS011;7755;52.208;6.964;2022-11-14T16:40:54;21.33;;;19.13;;
15307;SDS011;7755;52.208;6.964;2022-11-14T16:45:16;18.67;;;16.23;;
15307;SDS011;7755;52.208;6.964;2022-11-14T16:49:39;17.80;;;14.80;;
15307;SDS011;7755;52.208;6.964;2022-11-14T16:54:00;19.70;;;17.60;;
15307;SDS011;7755;52.208;6.964;2022-11-14T16:58:23;20.00;;;17.60;;
15307;SDS011;7755;52.208;6.964;2022-11-14T17:02:45;17.73;;;15.83;;
15307;SDS011;7755;52.208;6.964;2022-11-14T17:07:06;19.10;;;15.87;;
15307;SDS011;7755;52.208;6.964;2022-11-14T17:11:28;15.93;;;14.27;;
15307;SDS011;7755;52.208;6.964;2022-11-14T17:15:50;19.23;;;15.83;;
15307;SDS011;7755;52.208;6.964;2022-11-14T17:20:12;18.00;;;15.73;;
15307;SDS011;7755;52.208;6.964;2022-11-14T17:24:33;18.17;;;15.73;;
15307;SDS011;7755;52.208;6.964;2022-11-14T17:28:55;16.27;;;14.57;;
15307;SDS011;7755;52.208;6.964;2022-11-14T17:33:18;18.83;;;15.80;;
15307;SDS011;7755;52.208;6.964;2022-11-14T17:37:39;19.37;;;17.37;;
15307;SDS011;7755;52.208;6.964;2022-11-14T17:42:00;18.47;;;16.53;;
15307;SDS011;7755;52.208;6.964;2022-11-14T17:46:22;19.13;;;17.23;;
15307;SDS011;7755;52.208;6.964;2022-11-14T17:50:45;18.93;;;17.00;;
15307;SDS011;7755;52.208;6.964;2022-11-14T17:55:06;20.10;;;18.10;;
15307;SDS011;7755;52.208;6.964;2022-11-14T17:59:30;19.57;;;16.77;;
15307;SDS011;7755;52.208;6.964;2022-11-14T18:03:51;21.50;;;17.23;;
15307;SDS011;7755;52.208;6.964;2022-11-14T18:08:14;20.80;;;17.20;;
15307;SDS011;7755;52.208;6.964;2022-11-14T18:12:36;19.53;;;16.77;;
15307;SDS011;7755;52.208;6.964;2022-11-14T18:16:57;21.57;;;17.40;;
15307;SDS011;7755;52.208;6.964;2022-11-14T18:21:31;20.07;;;17.97;;
15307;SDS011;7755;52.208;6.964;2022-11-14T18:25:54;19.93;;;17.83;;
15307;SDS011;7755;52.208;6.964;2022-11-14T18:30:15;21.17;;;18.10;;
15307;SDS011;7755;52.208;6.964;2022-11-14T18:34:53;19.63;;;17.13;;
15307;SDS011;7755;52.208;6.964;2022-11-14T18:39:15;22.03;;;18.00;;
15307;SDS011;7755;52.208;6.964;2022-11-14T18:43:38;18.43;;;16.53;;
15307;SDS011;7755;52.208;6.964;2022-11-14T18:47:59;19.70;;;17.40;;
15307;SDS011;7755;52.208;6.964;2022-11-14T18:52:21;19.43;;;17.43;;
15307;SDS011;7755;52.208;6.964;2022-11-14T18:56:42;19.70;;;17.63;;
15307;SDS011;7755;52.208;6.964;2022-11-14T19:01:08;17.83;;;15.93;;
15307;SDS011;7755;52.208;6.964;2022-11-14T19:05:33;19.30;;;17.27;;
15307;SDS011;7755;52.208;6.964;2022-11-14T19:09:55;21.67;;;18.00;;
15307;SDS011;7755;52.208;6.964;2022-11-14T19:14:16;19.27;;;17.33;;
15307;SDS011;7755;52.208;6.964;2022-11-14T19:18:39;19.57;;;17.00;;
15307;SDS011;7755;52.208;6.964;2022-11-14T19:23:01;16.67;;;14.97;;
15307;SDS011;7755;52.208;6.964;2022-11-14T19:27:22;17.57;;;15.77;;
15307;SDS011;7755;52.208;6.964;2022-11-14T19:31:43;20.37;;;17.33;;
15307;SDS011;7755;52.208;6.964;2022-11-14T19:36:07;18.80;;;16.80;;
15307;SDS011;7755;52.208;6.964;2022-11-14T19:40:31;18.20;;;16.30;;
15307;SDS011;7755;52.208;6.964;2022-11-14T19:44:52;20.13;;;17.93;;
15307;SDS011;7755;52.208;6.964;2022-11-14T19:49:13;19.30;;;17.30;;
15307;SDS011;7755;52.208;6.964;2022-11-14T19:53:37;19.17;;;16.83;;
15307;SDS011;7755;52.208;6.964;2022-11-14T19:57:59;17.73;;;16.03;;
15307;SDS011;7755;52.208;6.964;2022-11-14T20:02:20;18.93;;;16.50;;
15307;SDS011;7755;52.208;6.964;2022-11-14T20:06:42;17.93;;;16.10;;
15307;SDS011;7755;52.208;6.964;2022-11-14T20:11:05;18.13;;;16.27;;
15307;SDS011;7755;52.208;6.964;2022-11-14T20:15:27;19.67;;;17.47;;
15307;SDS011;7755;52.208;6.964;2022-11-14T20:19:49;21.47;;;19.17;;
15307;SDS011;7755;52.208;6.964;2022-11-14T20:24:11;20.40;;;18.43;;
15307;SDS011;7755;52.208;6.964;2022-11-14T20:28:37;18.07;;;16.27;;
15307;SDS011;7755;52.208;6.964;2022-11-14T20:32:59;20.60;;;18.50;;
15307;SDS011;7755;52.208;6.964;2022-11-14T20:37:20;25.90;;;23.03;;
15307;SDS011;7755;52.208;6.964;2022-11-14T20:41:42;18.70;;;16.80;;
15307;SDS011;7755;52.208;6.964;2022-11-14T20:46:08;20.33;;;18.13;;
15307;SDS011;7755;52.208;6.964;2022-11-14T20:50:32;19.43;;;17.13;;
15307;SDS011;7755;52.208;6.964;2022-11-14T20:54:53;19.60;;;17.57;;
15307;SDS011;7755;52.208;6.964;2022-11-14T20:59:14;18.57;;;16.57;;
15307;SDS011;7755;52.208;6.964;2022-11-14T21:03:37;21.27;;;17.67;;
15307;SDS011;7755;52.208;6.964;2022-11-14T21:07:59;20.27;;;18.07;;
15307;SDS011;7755;52.208;6.964;2022-11-14T21:12:20;19.53;;;17.43;;
15307;SDS011;7755;52.208;6.964;2022-11-14T21:16:42;20.60;;;18.40;;
15307;SDS011;7755;52.208;6.964;2022-11-14T21:21:05;20.17;;;17.30;;
15307;SDS011;7755;52.208;6.964;2022-11-14T21:25:28;20.03;;;16.57;;
15307;SDS011;7755;52.208;6.964;2022-11-14T21:29:49;17.27;;;15.43;;
15307;SDS011;7755;52.208;6.964;2022-11-14T21:34:11;19.33;;;16.37;;
15307;SDS011;7755;52.208;6.964;2022-11-14T21:38:36;18.00;;;16.10;;
15307;SDS011;7755;52.208;6.964;2022-11-14T21:42:57;17.77;;;15.97;;
15307;SDS011;7755;52.208;6.964;2022-11-14T21:47:18;17.67;;;15.60;;
15307;SDS011;7755;52.208;6.964;2022-11-14T21:51:40;17.57;;;15.10;;
15307;SDS011;7755;52.208;6.964;2022-11-14T21:56:09;16.60;;;14.77;;
15307;SDS011;7755;52.208;6.964;2022-11-14T22:00:33;18.37;;;15.60;;
15307;SDS011;7755;52.208;6.964;2022-11-14T22:04:54;16.90;;;14.90;;
15307;SDS011;7755;52.208;6.964;2022-11-14T22:09:16;16.03;;;14.47;;
15307;SDS011;7755;52.208;6.964;2022-11-14T22:13:39;15.60;;;14.00;;
15307;SDS011;7755;52.208;6.964;2022-11-14T22:18:00;16.70;;;14.60;;
15307;SDS011;7755;52.208;6.964;2022-11-14T22:22:22;16.07;;;14.33;;
15307;SDS011;7755;52.208;6.964;2022-11-14T22:26:43;17.20;;;15.40;;
15307;SDS011;7755;52.208;6.964;2022-11-14T22:31:06;17.90;;;15.37;;
15307;SDS011;7755;52.208;6.964;2022-11-14T22:35:33;17.40;;;15.70;;
15307;SDS011;7755;52.208;6.964;2022-11-14T22:39:54;17.70;;;15.20;;
15307;SDS011;7755;52.208;6.964;2022-11-14T22:44:16;17.60;;;15.20;;
15307;SDS011;7755;52.208;6.964;2022-11-14T22:48:39;17.67;;;14.83;;
15307;SDS011;7755;52.208;6.964;2022-11-14T22:53:01;15.33;;;13.73;;
15307;SDS011;7755;52.208;6.964;2022-11-14T22:57:22;15.87;;;14.10;;
15307;SDS011;7755;52.208;6.964;2022-11-14T23:01:43;16.17;;;13.57;;
15307;SDS011;7755;52.208;6.964;2022-11-14T23:06:07;17.30;;;14.33;;
15307;SDS011;7755;52.208;6.964;2022-11-14T23:10:28;17.20;;;14.87;;
15307;SDS011;7755;52.208;6.964;2022-11-14T23:14:49;14.93;;;13.13;;
15307;SDS011;7755;52.208;6.964;2022-11-14T23:19:10;15.50;;;13.90;;
15307;SDS011;7755;52.208;6.964;2022-11-14T23:23:33;18.07;;;14.37;;
15307;SDS011;7755;52.208;6.964;2022-11-14T23:27:55;15.47;;;13.10;;
15307;SDS011;7755;52.208;6.964;2022-11-14T23:32:17;16.47;;;14.30;;
15307;SDS011;7755;52.208;6.964;2022-11-14T23:36:38;15.30;;;13.80;;
15307;SDS011;7755;52.208;6.964;2022-11-14T23:41:01;16.07;;;13.37;;
15307;SDS011;7755;52.208;6.964;2022-11-14T23:45:22;15.10;;;13.47;;
15307;SDS011;7755;52.208;6.964;2022-11-14T23:49:44;20.43;;;14.70;;
15307;SDS011;7755;52.208;6.964;2022-11-14T23:54:05;18.47;;;15.40;;
15307;SDS011;7755;52.208;6.964;2022-11-14T23:58:28;17.17;;;14.60;;
